Aérodrome :
LOGIN :

S'inscrire | Disclaimer

   EN    FR    IT 

 










Légende :    VFR   VFR Marginal   IFR   IFR Intensif   IFR Très Intensif
Visi : 
Plafond : 
>= 8 km
>= 3000ft
5 à 8 km
1000 à 3000 ft
1500m à 5 km
500 à 1000 ft
800 à 1500m
200 à 500 ft
< 800m
< 200 ft
Symboles :   Orages  Brouillard  Fortes neiges  Fortes précipitations  Vent > 20 kt
SIGMETs :   Divers  Orages  Givrage  Turbulence  Onde Orograph.  Cendres Volcan.







- Altitude de l'aérodrome : 1768 ft


LEHC - Huesca Pirineos

DERNIER METAR :
  • 242130Z AUTO 08002KT 9999 NCD 21/12 Q1016

METARs EXPIRÉS :
  • 242100Z AUTO 27006KT 9999 NCD 24/10 Q1016
  • 242030Z AUTO 24006KT 9999 NCD 24/11 Q1016
  • 242000Z AUTO 25006KT 9999 NCD 25/12 Q1015
  • 241930Z AUTO 23005KT 9999 NCD 26/13 Q1015
  • 241900Z AUTO 23005KT 200V260 9999 NCD 28/13 Q1015

TAF TAF LEHC
Valide du 24 à 09h jusqu'au 25 à 09h UTC


240800Z 2409/2509 VRB04KT 9999 FEW040 TX33/2414Z TN18/2505Z
TEMPO 2416/2418 28011KT
TEMPO 2420/2502 10012KT
PROB40
TEMPO 2421/2424 10018G30KT
BECMG 2504/2506 VRB03KT
Pas de NOTAMs connus pour ce terrain.



MET'MAP, la Météo Aéronautique d'un coup d'oeil ! - Copyright ORBIFLY Décembre 2007 - Disclaimer

ORBIFLY MET'MAP TEAM :

Programmation & Développement : Alexandra Zaïnal
Conception & Développement : Baudouin d'Aumeries
Co-Programmation & Développement : Marc-Olivier Méhu
Soutien technique & logistique : Manuel Goepfert

Contact : metmap@orbifly.com




SOURCES & CREDITS :

   NOAA